createdAt,value
2023-02-10T00:01:25.609Z,100.00
2023-02-10T00:03:53.844Z,100.00
2023-02-10T00:06:22.557Z,100.00
2023-02-10T00:08:51.281Z,100.00
2023-02-10T00:11:19.143Z,100.00
2023-02-10T00:13:47.062Z,100.00
2023-02-10T00:16:16.382Z,100.00
2023-02-10T00:18:44.363Z,100.00
2023-02-10T00:21:14.825Z,100.00
2023-02-10T00:23:42.598Z,100.00
2023-02-10T00:26:11.872Z,100.00
2023-02-10T00:28:39.787Z,100.00
2023-02-10T00:31:11.866Z,100.00
2023-02-10T00:33:39.824Z,100.00
2023-02-10T00:36:08.782Z,100.00
2023-02-10T00:38:36.742Z,100.00
2023-02-10T00:41:11.425Z,100.00
2023-02-10T00:43:41.551Z,100.00
2023-02-10T00:46:09.498Z,100.00
2023-02-10T00:48:37.363Z,100.00
2023-02-10T00:51:05.507Z,100.00
2023-02-10T00:53:33.557Z,100.00
2023-02-10T00:56:01.265Z,100.00
2023-02-10T00:58:29.072Z,100.00
2023-02-10T01:00:57.042Z,100.00
2023-02-10T01:03:25.089Z,100.00
2023-02-10T01:05:53.040Z,100.00
2023-02-10T01:08:21.001Z,100.00
2023-02-10T01:10:48.954Z,100.00
2023-02-10T01:13:17.201Z,100.00
2023-02-10T01:15:46.842Z,100.00
2023-02-10T01:18:14.940Z,100.00
2023-02-10T01:20:43.183Z,100.00
2023-02-10T01:23:11.106Z,100.00
2023-02-10T01:25:39.094Z,100.00
2023-02-10T01:28:07.310Z,100.00
2023-02-10T01:30:35.465Z,100.00
2023-02-10T01:33:03.409Z,100.00
2023-02-10T01:35:31.224Z,100.00
2023-02-10T01:37:59.272Z,100.00
2023-02-10T01:40:27.514Z,100.00
2023-02-10T01:42:55.542Z,100.00
2023-02-10T01:45:29.592Z,100.00
2023-02-10T01:47:57.718Z,100.00
2023-02-10T01:50:29.024Z,100.00
2023-02-10T01:52:56.994Z,100.00
2023-02-10T01:55:27.435Z,100.00
2023-02-10T01:57:58.030Z,100.00
2023-02-10T02:00:26.358Z,100.00
2023-02-10T02:02:54.254Z,100.00
2023-02-10T02:05:31.368Z,100.00
2023-02-10T02:08:08.804Z,100.00
2023-02-10T02:10:45.126Z,100.00
2023-02-10T02:13:28.656Z,100.00
2023-02-10T02:16:21.117Z,100.00
2023-02-10T02:19:14.648Z,100.00
2023-02-10T02:22:07.053Z,100.00
2023-02-10T02:24:46.560Z,100.00
2023-02-10T02:27:33.370Z,100.00
2023-02-10T02:30:07.168Z,100.00
2023-02-10T02:32:55.792Z,100.00
2023-02-10T02:35:28.531Z,100.00
2023-02-10T02:37:56.473Z,100.00
2023-02-10T02:40:24.288Z,100.00
2023-02-10T02:42:52.364Z,100.00
2023-02-10T02:45:22.612Z,100.00
2023-02-10T02:48:19.563Z,100.00
2023-02-10T02:51:08.110Z,100.00
2023-02-10T02:53:42.201Z,100.00
2023-02-10T02:56:31.276Z,100.00
2023-02-10T02:59:11.531Z,100.00
2023-02-10T03:01:44.419Z,100.00
2023-02-10T03:04:14.191Z,100.00
2023-02-10T03:06:42.020Z,100.00
2023-02-10T03:09:09.817Z,100.00
2023-02-10T03:11:37.599Z,100.00
2023-02-10T03:14:05.362Z,100.00
2023-02-10T03:16:33.203Z,100.00
2023-02-10T03:19:01.439Z,100.00
2023-02-10T03:21:29.244Z,100.00
2023-02-10T03:23:56.980Z,100.00
2023-02-10T03:26:24.780Z,100.00
2023-02-10T03:28:52.662Z,100.00
2023-02-10T03:31:20.475Z,100.00
2023-02-10T03:33:48.274Z,100.00
2023-02-10T03:36:16.445Z,100.00
2023-02-10T03:38:44.257Z,100.00
2023-02-10T03:41:12.286Z,100.00
2023-02-10T03:43:40.070Z,100.00
2023-02-10T03:46:07.964Z,100.00
2023-02-10T03:48:35.795Z,100.00
2023-02-10T03:51:04.979Z,100.00
2023-02-10T03:53:32.933Z,100.00
2023-02-10T03:56:00.815Z,100.00
2023-02-10T03:58:28.602Z,100.00
2023-02-10T04:00:56.398Z,100.00
2023-02-10T04:03:24.294Z,100.00
2023-02-10T04:05:52.179Z,100.00
2023-02-10T04:08:20.155Z,100.00
2023-02-10T04:10:47.928Z,100.00
2023-02-10T04:13:15.757Z,100.00
2023-02-10T04:15:43.689Z,100.00
2023-02-10T04:18:11.490Z,100.00
2023-02-10T04:20:39.368Z,100.00
2023-02-10T04:23:07.166Z,100.00
2023-02-10T04:25:35.109Z,100.00
2023-02-10T04:28:02.907Z,100.00
2023-02-10T04:30:30.824Z,100.00
2023-02-10T04:32:58.693Z,100.00
2023-02-10T04:35:26.591Z,100.00
2023-02-10T04:37:54.408Z,100.00
2023-02-10T04:40:22.215Z,100.00
2023-02-10T04:42:50.423Z,100.00
2023-02-10T04:45:18.201Z,100.00
2023-02-10T04:47:46.073Z,100.00
2023-02-10T04:50:14.026Z,100.00
2023-02-10T04:52:41.868Z,100.00
2023-02-10T04:55:09.708Z,100.00
2023-02-10T04:57:37.473Z,100.00
2023-02-10T05:00:06.972Z,100.00
2023-02-10T05:02:34.815Z,100.00
2023-02-10T05:05:02.694Z,100.00
2023-02-10T05:07:30.616Z,100.00
2023-02-10T05:09:59.078Z,100.00
2023-02-10T05:12:27.062Z,100.00
2023-02-10T05:14:54.812Z,100.00
2023-02-10T05:17:22.627Z,100.00
2023-02-10T05:19:50.545Z,100.00
2023-02-10T05:22:18.326Z,100.00
2023-02-10T05:24:46.087Z,100.00
2023-02-10T05:27:13.828Z,100.00
2023-02-10T05:29:41.686Z,100.00
2023-02-10T05:32:09.586Z,100.00
2023-02-10T05:34:37.524Z,100.00
2023-02-10T05:37:05.274Z,100.00
2023-02-10T05:39:33.008Z,100.00
2023-02-10T05:42:00.962Z,100.00
2023-02-10T05:44:30.602Z,100.00
2023-02-10T05:46:58.455Z,100.00
2023-02-10T05:49:26.455Z,100.00
2023-02-10T05:51:55.215Z,100.00
2023-02-10T05:54:23.054Z,100.00
2023-02-10T05:56:52.252Z,100.00
2023-02-10T05:59:20.199Z,100.00
2023-02-10T06:01:48.094Z,100.00
2023-02-10T06:04:15.984Z,100.00
2023-02-10T06:06:43.851Z,100.00
2023-02-10T06:09:11.682Z,100.00
2023-02-10T06:11:39.532Z,100.00
2023-02-10T06:14:07.369Z,100.00
2023-02-10T06:16:35.363Z,100.00
2023-02-10T06:19:03.251Z,100.00
2023-02-10T06:21:31.127Z,100.00
2023-02-10T06:23:59.089Z,100.00
2023-02-10T06:26:27.669Z,100.00
2023-02-10T06:28:56.291Z,100.00
2023-02-10T06:31:24.519Z,100.00
2023-02-10T06:33:52.338Z,100.00
2023-02-10T06:36:20.256Z,100.00
2023-02-10T06:38:49.936Z,100.00
2023-02-10T06:41:18.184Z,100.00
2023-02-10T06:43:46.044Z,100.00
2023-02-10T06:46:15.204Z,100.00
2023-02-10T06:48:43.095Z,100.00
2023-02-10T06:51:11.013Z,100.00
2023-02-10T06:53:39.577Z,100.00
2023-02-10T06:56:07.971Z,100.00
2023-02-10T06:58:35.742Z,100.00
2023-02-10T07:01:08.225Z,100.00
2023-02-10T07:03:36.514Z,100.00
2023-02-10T07:06:04.307Z,100.00
2023-02-10T07:08:32.324Z,100.00
2023-02-10T07:11:00.201Z,100.00
2023-02-10T07:13:28.104Z,100.00
2023-02-10T07:15:55.986Z,100.00
2023-02-10T07:18:23.940Z,100.00
2023-02-10T07:20:51.926Z,100.00
2023-02-10T07:23:34.221Z,100.00
2023-02-10T07:26:04.023Z,100.00
2023-02-10T07:28:32.004Z,100.00
2023-02-10T07:30:59.925Z,100.00
2023-02-10T07:33:28.396Z,100.00
2023-02-10T07:35:56.526Z,100.00
2023-02-10T07:38:24.382Z,100.00
2023-02-10T07:40:52.145Z,100.00
2023-02-10T07:43:20.077Z,100.00
2023-02-10T07:45:48.208Z,100.00
2023-02-10T07:48:16.249Z,100.00
2023-02-10T07:50:44.122Z,100.00
2023-02-10T07:53:12.398Z,100.00
2023-02-10T07:55:40.203Z,100.00
2023-02-10T07:58:08.125Z,100.00
2023-02-10T08:00:36.424Z,100.00
2023-02-10T08:03:04.327Z,100.00
2023-02-10T08:05:32.354Z,100.00
2023-02-10T08:08:00.186Z,100.00
2023-02-10T08:10:28.040Z,100.00
2023-02-10T08:12:55.888Z,100.00
2023-02-10T08:15:24.765Z,100.00
2023-02-10T08:17:52.642Z,100.00
2023-02-10T08:20:20.516Z,100.00
2023-02-10T08:22:48.348Z,100.00
2023-02-10T08:25:16.115Z,100.00
2023-02-10T08:27:43.945Z,100.00
2023-02-10T08:30:13.640Z,100.00
2023-02-10T08:32:41.450Z,100.00
2023-02-10T08:35:09.438Z,100.00
2023-02-10T08:37:37.444Z,100.00
2023-02-10T08:40:07.704Z,100.00
2023-02-10T08:42:35.681Z,100.00
2023-02-10T08:45:03.509Z,100.00
2023-02-10T08:47:31.329Z,100.00
2023-02-10T08:49:59.122Z,100.00
2023-02-10T08:52:27.067Z,100.00
2023-02-10T08:54:54.913Z,100.00
2023-02-10T08:57:22.788Z,100.00
2023-02-10T08:59:50.637Z,100.00
2023-02-10T09:02:18.499Z,100.00
2023-02-10T09:04:48.379Z,100.00
2023-02-10T09:07:19.653Z,100.00
2023-02-10T09:09:47.434Z,100.00
2023-02-10T09:12:15.327Z,100.00
2023-02-10T09:14:43.342Z,100.00
2023-02-10T09:17:11.498Z,100.00
2023-02-10T09:19:39.777Z,100.00
2023-02-10T09:22:07.712Z,100.00
2023-02-10T09:24:35.733Z,100.00
2023-02-10T09:27:03.511Z,100.00
2023-02-10T09:29:31.524Z,100.00
2023-02-10T09:31:59.503Z,100.00
2023-02-10T09:34:27.578Z,100.00
2023-02-10T09:36:59.473Z,100.00
2023-02-10T09:39:27.753Z,100.00
2023-02-10T09:42:30.697Z,100.00
2023-02-10T09:45:01.956Z,100.00
2023-02-10T09:48:04.912Z,100.00
2023-02-10T09:51:08.104Z,100.00
2023-02-10T09:53:35.994Z,100.00
2023-02-10T09:56:05.272Z,100.00
2023-02-10T09:58:40.286Z,100.00
2023-02-10T10:01:21.463Z,100.00
2023-02-10T10:03:55.520Z,100.00
2023-02-10T10:06:39.578Z,100.00
2023-02-10T10:09:10.754Z,100.00
2023-02-10T10:11:48.611Z,100.00
2023-02-10T10:14:21.713Z,100.00
2023-02-10T10:17:21.866Z,100.00
2023-02-10T10:19:58.372Z,100.00
2023-02-10T10:22:57.334Z,100.00
2023-02-10T10:25:50.294Z,100.00
2023-02-10T10:28:36.791Z,100.00
2023-02-10T10:31:18.749Z,100.00
2023-02-10T10:33:53.826Z,99.85
2023-02-10T10:36:37.944Z,100.00
2023-02-10T10:39:24.657Z,99.77
2023-02-10T10:41:52.510Z,98.65
2023-02-10T10:44:20.684Z,100.00
2023-02-10T10:46:52.168Z,99.17
2023-02-10T10:49:20.127Z,98.39
2023-02-10T10:51:50.119Z,95.83
2023-02-10T10:54:21.577Z,98.23
2023-02-10T10:56:53.866Z,97.28
2023-02-10T10:59:27.615Z,96.45
2023-02-10T11:01:55.400Z,96.21
2023-02-10T11:04:25.545Z,92.73
2023-02-10T11:07:01.488Z,94.40
2023-02-10T11:09:38.060Z,92.81
2023-02-10T11:12:39.951Z,91.72
2023-02-10T11:15:33.429Z,87.63
2023-02-10T11:18:02.077Z,86.22
2023-02-10T11:20:32.676Z,84.81
2023-02-10T11:23:17.597Z,83.96
2023-02-10T11:25:49.679Z,83.85
2023-02-10T11:28:20.664Z,81.42
2023-02-10T11:30:49.979Z,78.95
2023-02-10T11:33:22.463Z,73.67
2023-02-10T11:35:55.318Z,73.03
2023-02-10T11:38:23.878Z,71.40
2023-02-10T11:40:56.852Z,70.33
2023-02-10T11:43:37.474Z,68.75
2023-02-10T11:46:06.860Z,67.88
2023-02-10T11:48:34.944Z,70.56
2023-02-10T11:51:16.798Z,68.34
2023-02-10T11:53:45.177Z,66.85
2023-02-10T11:56:53.568Z,66.69
2023-02-10T11:59:42.425Z,66.29
2023-02-10T12:02:31.569Z,66.01
2023-02-10T12:05:14.878Z,65.39
2023-02-10T12:07:55.847Z,65.31
2023-02-10T12:10:44.615Z,65.05
2023-02-10T12:13:12.631Z,62.63
2023-02-10T12:15:54.403Z,60.83
2023-02-10T12:18:30.668Z,58.83
2023-02-10T12:21:12.804Z,57.45
2023-02-10T12:24:08.397Z,56.14
2023-02-10T12:26:51.383Z,56.12
2023-02-10T12:29:35.475Z,54.66
2023-02-10T12:32:18.546Z,55.77
2023-02-10T12:35:14.194Z,56.16
2023-02-10T12:37:57.258Z,53.92
2023-02-10T12:40:39.997Z,54.38
2023-02-10T12:43:10.690Z,55.77
2023-02-10T12:46:17.196Z,55.78
2023-02-10T12:48:54.152Z,53.99
2023-02-10T12:52:06.543Z,56.01
2023-02-10T12:54:54.464Z,54.88
2023-02-10T12:57:39.429Z,55.67
2023-02-10T13:00:37.039Z,55.82
2023-02-10T13:03:18.680Z,55.78
2023-02-10T13:06:21.995Z,55.66
2023-02-10T13:08:52.714Z,54.66
2023-02-10T13:11:57.285Z,54.51
2023-02-10T13:14:27.964Z,55.64
2023-02-10T13:16:57.422Z,57.23
2023-02-10T13:19:30.631Z,57.13
2023-02-10T13:22:04.368Z,56.12
2023-02-10T13:24:49.231Z,56.62
2023-02-10T13:27:36.222Z,56.59
2023-02-10T13:30:07.085Z,55.80
2023-02-10T13:33:05.621Z,56.17
2023-02-10T13:35:34.222Z,56.25
2023-02-10T13:38:07.788Z,56.43
2023-02-10T13:40:47.288Z,57.60
2023-02-10T13:43:38.187Z,55.93
2023-02-10T13:46:08.960Z,56.70
2023-02-10T13:48:37.202Z,57.54
2023-02-10T13:51:09.073Z,56.97
2023-02-10T13:53:36.788Z,56.96
2023-02-10T13:56:29.189Z,55.44
2023-02-10T13:59:06.865Z,55.23
2023-02-10T14:01:43.736Z,56.12
2023-02-10T14:04:23.468Z,55.87
2023-02-10T14:06:53.459Z,56.34
2023-02-10T14:09:23.459Z,56.04
2023-02-10T14:11:55.129Z,56.04
2023-02-10T14:14:30.911Z,56.04
2023-02-10T14:17:15.388Z,56.18
2023-02-10T14:19:45.967Z,54.87
2023-02-10T14:22:40.016Z,56.16
2023-02-10T14:25:19.390Z,54.11
2023-02-10T14:27:51.446Z,55.44
2023-02-10T14:30:22.312Z,54.07
2023-02-10T14:32:50.249Z,54.84
2023-02-10T14:35:29.051Z,55.55
2023-02-10T14:37:59.180Z,55.20
2023-02-10T14:40:27.896Z,54.35
2023-02-10T14:42:55.679Z,53.83
2023-02-10T14:45:30.035Z,54.63
2023-02-10T14:47:58.949Z,51.53
2023-02-10T14:50:31.755Z,51.63
2023-02-10T14:53:00.593Z,53.05
2023-02-10T14:55:29.888Z,54.17
2023-02-10T14:58:00.330Z,54.66
2023-02-10T15:00:28.192Z,54.65
2023-02-10T15:02:59.671Z,55.33
2023-02-10T15:05:28.463Z,56.03
2023-02-10T15:07:57.172Z,56.18
2023-02-10T15:10:45.351Z,56.14
2023-02-10T15:13:13.726Z,57.45
2023-02-10T15:15:43.362Z,57.47
2023-02-10T15:18:13.710Z,58.27
2023-02-10T15:20:42.412Z,57.29
2023-02-10T15:23:31.189Z,57.85
2023-02-10T15:26:07.395Z,58.15
2023-02-10T15:28:35.429Z,59.42
2023-02-10T15:31:09.901Z,59.29
2023-02-10T15:34:07.777Z,60.98
2023-02-10T15:36:36.704Z,60.78
2023-02-10T15:39:18.363Z,60.29
2023-02-10T15:41:47.447Z,61.80
2023-02-10T15:44:21.370Z,62.19
2023-02-10T15:46:52.553Z,62.01
2023-02-10T15:49:21.264Z,62.08
2023-02-10T15:51:53.332Z,62.56
2023-02-10T15:54:28.559Z,62.64
2023-02-10T15:57:00.880Z,63.36
2023-02-10T15:59:30.072Z,63.82
2023-02-10T16:01:58.706Z,63.27
2023-02-10T16:04:26.830Z,63.98
2023-02-10T16:06:54.634Z,64.52
2023-02-10T16:09:22.579Z,64.86
2023-02-10T16:11:50.341Z,65.35
2023-02-10T16:14:18.222Z,64.98
2023-02-10T16:16:54.423Z,65.32
2023-02-10T16:19:23.328Z,65.73
2023-02-10T16:21:51.430Z,65.83
2023-02-10T16:24:21.006Z,66.37
2023-02-10T16:26:49.070Z,66.90
2023-02-10T16:29:20.641Z,67.58
2023-02-10T16:31:48.797Z,67.63
2023-02-10T16:34:16.821Z,67.56
2023-02-10T16:36:46.943Z,68.59
2023-02-10T16:39:19.818Z,68.46
2023-02-10T16:41:48.600Z,68.60
2023-02-10T16:44:16.551Z,68.99
2023-02-10T16:46:44.943Z,68.90
2023-02-10T16:49:13.962Z,68.92
2023-02-10T16:51:42.316Z,69.11
2023-02-10T16:54:12.838Z,69.52
2023-02-10T16:56:41.772Z,69.58
2023-02-10T16:59:10.339Z,70.37
2023-02-10T17:01:38.281Z,70.61
2023-02-10T17:04:06.068Z,70.73
2023-02-10T17:06:34.028Z,71.19
2023-02-10T17:09:01.906Z,71.17
2023-02-10T17:11:32.613Z,71.23
2023-02-10T17:14:00.499Z,72.24
2023-02-10T17:16:39.055Z,71.98
2023-02-10T17:19:07.506Z,72.59
2023-02-10T17:21:35.309Z,72.77
2023-02-10T17:24:03.028Z,73.09
2023-02-10T17:26:30.893Z,73.75
2023-02-10T17:28:58.653Z,74.07
2023-02-10T17:31:26.894Z,74.66
2023-02-10T17:33:54.748Z,74.96
2023-02-10T17:36:25.764Z,75.12
2023-02-10T17:38:54.267Z,76.01
2023-02-10T17:41:23.676Z,75.50
2023-02-10T17:43:52.125Z,75.78
2023-02-10T17:46:20.638Z,76.50
2023-02-10T17:48:48.545Z,76.65
2023-02-10T17:51:20.995Z,77.07
2023-02-10T17:53:52.631Z,77.49
2023-02-10T17:56:21.772Z,78.41
2023-02-10T17:58:50.354Z,78.94
2023-02-10T18:01:22.605Z,78.97
2023-02-10T18:03:50.617Z,78.93
2023-02-10T18:06:19.280Z,79.95
2023-02-10T18:08:47.609Z,79.16
2023-02-10T18:11:15.757Z,79.35
2023-02-10T18:13:43.600Z,80.17
2023-02-10T18:16:11.501Z,80.26
2023-02-10T18:18:39.467Z,79.98
2023-02-10T18:21:07.438Z,80.64
2023-02-10T18:23:35.178Z,80.71
2023-02-10T18:26:02.985Z,79.72
2023-02-10T18:28:30.840Z,80.48
2023-02-10T18:31:01.649Z,80.22
2023-02-10T18:33:29.951Z,80.46
2023-02-10T18:35:57.847Z,80.43
2023-02-10T18:38:25.818Z,80.85
2023-02-10T18:40:56.956Z,81.32
2023-02-10T18:43:24.811Z,81.19
2023-02-10T18:45:53.286Z,81.71
2023-02-10T18:48:21.222Z,81.89
2023-02-10T18:50:49.882Z,82.30
2023-02-10T18:53:18.277Z,82.78
2023-02-10T18:55:49.781Z,83.00
2023-02-10T18:58:18.071Z,83.11
2023-02-10T19:00:46.346Z,82.84
2023-02-10T19:03:15.208Z,84.14
2023-02-10T19:05:43.033Z,83.51
2023-02-10T19:08:10.848Z,83.82
2023-02-10T19:10:39.436Z,85.12
2023-02-10T19:13:08.258Z,84.21
2023-02-10T19:15:36.079Z,84.62
2023-02-10T19:18:03.974Z,85.33
2023-02-10T19:20:31.861Z,85.80
2023-02-10T19:22:59.760Z,85.71
2023-02-10T19:25:27.707Z,86.35
2023-02-10T19:27:56.111Z,86.55
2023-02-10T19:30:24.100Z,86.67
2023-02-10T19:32:51.975Z,87.26
2023-02-10T19:35:19.858Z,87.26
2023-02-10T19:37:47.746Z,87.28
2023-02-10T19:40:15.876Z,87.90
2023-02-10T19:42:43.765Z,88.54
2023-02-10T19:45:11.689Z,88.04
2023-02-10T19:47:39.532Z,88.24
2023-02-10T19:50:07.658Z,88.77
2023-02-10T19:52:37.729Z,88.44
2023-02-10T19:55:07.150Z,89.12
2023-02-10T19:57:34.999Z,90.19
2023-02-10T20:00:03.009Z,89.86
2023-02-10T20:02:30.852Z,90.62
2023-02-10T20:04:58.688Z,90.54
2023-02-10T20:07:29.441Z,90.77
2023-02-10T20:09:58.331Z,93.03
2023-02-10T20:12:26.461Z,93.07
2023-02-10T20:14:54.609Z,92.59
2023-02-10T20:17:22.659Z,92.83
2023-02-10T20:19:50.787Z,92.84
2023-02-10T20:22:18.589Z,92.64
2023-02-10T20:24:46.424Z,92.48
2023-02-10T20:27:21.922Z,92.21
2023-02-10T20:29:50.909Z,92.94
2023-02-10T20:32:18.843Z,92.30
2023-02-10T20:34:46.733Z,92.68
2023-02-10T20:37:14.603Z,93.37
2023-02-10T20:39:42.513Z,93.21
2023-02-10T20:42:10.821Z,93.40
2023-02-10T20:44:39.041Z,93.39
2023-02-10T20:47:06.916Z,93.28
2023-02-10T20:49:34.786Z,93.65
2023-02-10T20:52:02.581Z,93.76
2023-02-10T20:54:31.034Z,93.58
2023-02-10T20:56:58.877Z,94.57
2023-02-10T20:59:27.029Z,94.23
2023-02-10T21:01:54.997Z,94.17
2023-02-10T21:04:23.123Z,93.92
2023-02-10T21:06:52.505Z,93.80
2023-02-10T21:09:20.392Z,93.73
2023-02-10T21:11:48.351Z,93.45
2023-02-10T21:14:16.399Z,94.98
2023-02-10T21:16:44.478Z,94.50
2023-02-10T21:19:15.669Z,95.15
2023-02-10T21:21:43.523Z,96.30
2023-02-10T21:24:11.357Z,96.61
2023-02-10T21:26:39.219Z,97.60
2023-02-10T21:29:07.432Z,96.26
2023-02-10T21:31:39.085Z,96.01
2023-02-10T21:34:08.618Z,96.15
2023-02-10T21:36:37.239Z,95.73
2023-02-10T21:39:06.342Z,95.90
2023-02-10T21:41:42.501Z,95.69
2023-02-10T21:44:18.883Z,96.23
2023-02-10T21:46:48.085Z,96.47
2023-02-10T21:49:16.378Z,95.94
2023-02-10T21:51:44.363Z,96.72
2023-02-10T21:54:12.409Z,96.80
2023-02-10T21:56:40.308Z,96.81
2023-02-10T21:59:12.843Z,96.49
2023-02-10T22:01:41.021Z,96.42
2023-02-10T22:04:09.037Z,97.36
2023-02-10T22:06:38.929Z,98.17
2023-02-10T22:09:08.541Z,97.40
2023-02-10T22:11:36.463Z,96.99
2023-02-10T22:14:05.070Z,97.02
2023-02-10T22:16:33.142Z,97.16
2023-02-10T22:19:01.418Z,96.88
2023-02-10T22:21:29.598Z,97.36
2023-02-10T22:23:58.097Z,97.37
2023-02-10T22:26:27.974Z,96.88
2023-02-10T22:29:00.660Z,97.70
2023-02-10T22:31:31.609Z,97.48
2023-02-10T22:34:06.932Z,97.82
2023-02-10T22:36:35.238Z,97.57
2023-02-10T22:39:03.339Z,97.38
2023-02-10T22:41:31.975Z,97.03
2023-02-10T22:44:01.036Z,97.70
2023-02-10T22:46:29.295Z,97.51
2023-02-10T22:48:58.062Z,97.03
2023-02-10T22:51:27.700Z,96.88
2023-02-10T22:53:56.858Z,97.24
2023-02-10T22:56:25.961Z,97.68
2023-02-10T22:58:53.923Z,97.78
2023-02-10T23:01:44.919Z,97.38
2023-02-10T23:04:19.109Z,98.07
2023-02-10T23:06:47.085Z,97.99
2023-02-10T23:09:15.520Z,99.24
2023-02-10T23:11:46.210Z,98.92
2023-02-10T23:14:14.373Z,98.82
2023-02-10T23:16:42.488Z,100.00
2023-02-10T23:19:10.666Z,100.00
2023-02-10T23:21:38.482Z,100.00
2023-02-10T23:24:07.439Z,100.00
2023-02-10T23:26:35.655Z,100.00
2023-02-10T23:29:06.188Z,100.00
2023-02-10T23:31:34.208Z,99.87
2023-02-10T23:34:02.316Z,99.47
2023-02-10T23:36:30.540Z,98.69
2023-02-10T23:38:58.712Z,98.68
2023-02-10T23:41:26.708Z,98.55
2023-02-10T23:43:54.669Z,98.59
2023-02-10T23:46:22.584Z,98.33
2023-02-10T23:48:50.470Z,98.83
2023-02-10T23:51:20.244Z,99.02
2023-02-10T23:53:48.329Z,98.83
2023-02-10T23:56:17.007Z,98.90
2023-02-10T23:58:45.124Z,99.43
